Saint Landry, LA (71367)

7:04 AM CST on March 01, 2015 (GMT -0600)
Oakdale | Change Station
CLOSE
Current Station
Airport
Location: Oakdale,
Elevation: 108 ft
Nearby Weather Stations

Elev 108 ft 30.75 °N, 92.69 °W | Updated 9 minutes ago

Rain
Rain
56 °F
Feels Like 56 °F
N
4
Wind Variable Wind from East

Today
High -- | Low -- °F
--% Chance of Precip.
Yesterday
High -- | Low -- °F
Precip. -- in
6:36 AM 6:08 PM
Waxing Gibbous, 85% visible
Pressure 30.24 in
Visibility 4.0 miles
Clouds Overcast 700 ft
Dew Point 54 °F
Humidity 94%
Rainfall 0.00 in
Snow Depth Not available.
UV 0 out of 12
Pollen 9.50 out of 12
Air Quality Not available.
Flu Activity Not available.
METAR KACP 011255Z AUTO 09003KT 4SM BR OVC007 13/12 A3024 RMK AO2 T01320123

More Conditions Fewer Conditions

Pressure 30.24 in
Visibility 4.0 miles
Clouds Overcast 700 ft
Dew Point 54 °F
Humidity 94%
Rainfall 0.00 in
Snow Depth Not available.
UV 0 out of 12
Pollen 9.50 out of 12
Air Quality Not available.
Flu Activity Not available.
METAR KACP 011255Z AUTO 09003KT 4SM BR OVC007 13/12 A3024 RMK AO2 T01320123

More Conditions Fewer Conditions

10-Day Weather Forecast

Almanac

Astronomy

Mar. 01, 2015 Rise Set
Actual Time
Civil Twilight
Nautical Twilight
Astronomical Twilight
Moon
Length of Visible Light
Length of Day
Tomorrow will be .
, % of the Moon is Illuminated

Today's Extremes

State Highs State Lows

Community

WunderPhotos

Upload Photos

1,801,373 photos uploaded!

WunderBlogs® & News

Nearby

Air Quality

  Air Quality AQ Index Pollutant
Not available.

Snow Depth

Station Depth Elevation

Earthquake Activity

City Distance Mag. Time & Date
Minimum magnitude displayed is 2.5.

Coastal Water Temperatures

Place Temperature

Nearby Weather Stations